KACV

California Redwood Coast-Humboldt County Airport

Arcata/Eureka, California, USA
KACV 251725Z 2518/2618 30005KT P6SM OVC004 FM252200 29006KT P6SM BKN006 FM260400 VRB03KT 5SM BR OVC004 FM260900 VRB03KT 3SM BR OVC002
Issued Valid From Valid To
Apr-25 @ 17:25 UTC
(42 minutes ago)
Apr-25 @ 18:00 UTC
(7 minutes ago)
Apr-26 @ 18:00 UTC
(in 24 hours)
Apr-25 @ 18:00 to Apr-25 @ 22:00
KACV 251725Z 2518/2618 30005KT P6SM OVC004
Wind Visibility Clouds
300° at 5 knots Greater than 6 miles
  • Overcast at 400' AGL
From Apr-25 @ 22:00 to Apr-26 @ 04:00
FM252200 29006KT P6SM BKN006
Wind Visibility Clouds
290° at 6 knots Greater than 6 miles
  • Broken at 600' AGL
From Apr-26 @ 04:00 to Apr-26 @ 09:00
FM260400 VRB03KT 5SM BR OVC004
Wind Visibility Clouds Conditions
Variable at 3 knots 5 miles
  • Overcast at 400' AGL
  • Mist
From Apr-26 @ 09:00 to Apr-26 @ 18:00
FM260900 VRB03KT 3SM BR OVC002
Wind Visibility Clouds Conditions
Variable at 3 knots 3 miles
  • Overcast at 200' AGL
  • Mist
KACV 251725Z 2518/2618 30005KT P6SM OVC004 FM252200 29006KT P6SM BKN006 FM260400 VRB03KT 5SM BR OVC004 FM260900 VRB03KT 3SM BR OVC002
Issued Apr-25 @ 17:25 UTC
(42 minutes ago)
Valid From Apr-25 @ 18:00 UTC
(7 minutes ago)
Valid To Apr-26 @ 18:00 UTC
(in 24 hours)
Apr-25 @ 18:00 - Apr-25 @ 22:00
Wind Visibility
300° at 5 knots Greater than 6 miles
Clouds
  • Overcast at 400' AGL
From Apr-25 @ 22:00 - Apr-26 @ 04:00
Wind Visibility
290° at 6 knots Greater than 6 miles
Clouds
  • Broken at 600' AGL
From Apr-26 @ 04:00 - Apr-26 @ 09:00
Wind Visibility
Variable at 3 knots 5 miles
Clouds
  • Overcast at 400' AGL
Conditions
  • Mist
From Apr-26 @ 09:00 - Apr-26 @ 18:00
Wind Visibility
Variable at 3 knots 3 miles
Clouds
  • Overcast at 200' AGL
Conditions
  • Mist